Pine Springs, Arizona
Current Conditions -  °F | °C
As of 5:53 PM on Wednesday 22 Oct 2014 (Local Time) from KGUP Reporting Station
Clear Clear  
Wind Chill: 67°   Ceiling: Unl
Heat Index: 67°   Visibility: 10mi
Dew Point: 35°   Wind: 9mph
Humidity: 31%   Direction: 240°WSW
Pressure: 30.19"   Gusts: NA
Location:  35.2918°N, 109.157°W
Report Text: KGUP 222353Z AUTO 24008KT 10SM CLR 19/02 A3019 RMK AO2 SLP134 T01940017 10211 20172 55000
Loading
Personal Weather Stations






























Interactive Weather Map
Tropical Storm Tracking
New forecast layout! Learn more

10-Day Weather Forecast

Advertisements
Track Severe Weather on mobile